sensor_id;sensor_type;location;lat;lon;timestamp;P1;durP1;ratioP1;P2;durP2;ratioP2
46845;SDS011;33947;46.804;134.252;2023-04-02T00:03:15;14.68;;;7.60;;
46845;SDS011;33947;46.804;134.252;2023-04-02T00:09:35;22.73;;;7.72;;
46845;SDS011;33947;46.804;134.252;2023-04-02T00:12:40;14.25;;;7.50;;
46845;SDS011;33947;46.804;134.252;2023-04-02T00:16:04;11.82;;;7.18;;
46845;SDS011;33947;46.804;134.252;2023-04-02T00:22:40;19.85;;;8.23;;
46845;SDS011;33947;46.804;134.252;2023-04-02T00:25:47;21.50;;;9.15;;
46845;SDS011;33947;46.804;134.252;2023-04-02T00:28:52;20.13;;;10.52;;
46845;SDS011;33947;46.804;134.252;2023-04-02T00:31:55;19.67;;;8.35;;
46845;SDS011;33947;46.804;134.252;2023-04-02T00:35:03;17.88;;;7.45;;
46845;SDS011;33947;46.804;134.252;2023-04-02T00:38:19;20.75;;;7.18;;
46845;SDS011;33947;46.804;134.252;2023-04-02T00:41:29;18.77;;;7.10;;
46845;SDS011;33947;46.804;134.252;2023-04-02T00:44:41;23.67;;;10.88;;
46845;SDS011;33947;46.804;134.252;2023-04-02T00:47:48;15.43;;;8.13;;
46845;SDS011;33947;46.804;134.252;2023-04-02T00:50:53;17.13;;;6.72;;
46845;SDS011;33947;46.804;134.252;2023-04-02T00:53:59;26.05;;;7.00;;
46845;SDS011;33947;46.804;134.252;2023-04-02T00:57:11;29.80;;;7.28;;
46845;SDS011;33947;46.804;134.252;2023-04-02T01:03:34;20.33;;;7.80;;
46845;SDS011;33947;46.804;134.252;2023-04-02T01:06:41;14.45;;;6.93;;
46845;SDS011;33947;46.804;134.252;2023-04-02T01:09:49;31.98;;;8.77;;
46845;SDS011;33947;46.804;134.252;2023-04-02T01:26:56;17.65;;;7.30;;
46845;SDS011;33947;46.804;134.252;2023-04-02T01:34:36;12.20;;;6.63;;
46845;SDS011;33947;46.804;134.252;2023-04-02T01:37:49;30.00;;;8.45;;
46845;SDS011;33947;46.804;134.252;2023-04-02T01:41:42;14.88;;;6.68;;
46845;SDS011;33947;46.804;134.252;2023-04-02T01:47:49;18.92;;;7.78;;
46845;SDS011;33947;46.804;134.252;2023-04-02T01:50:55;28.35;;;7.72;;
46845;SDS011;33947;46.804;134.252;2023-04-02T01:54:03;39.13;;;9.57;;
46845;SDS011;33947;46.804;134.252;2023-04-02T02:00:14;19.73;;;6.80;;
46845;SDS011;33947;46.804;134.252;2023-04-02T02:03:24;34.33;;;7.50;;
46845;SDS011;33947;46.804;134.252;2023-04-02T02:06:30;15.80;;;7.25;;
46845;SDS011;33947;46.804;134.252;2023-04-02T02:09:35;19.63;;;6.95;;
46845;SDS011;33947;46.804;134.252;2023-04-02T02:12:39;25.08;;;7.95;;
46845;SDS011;33947;46.804;134.252;2023-04-02T02:15:45;15.90;;;7.00;;
46845;SDS011;33947;46.804;134.252;2023-04-02T02:18:53;21.27;;;7.95;;
46845;SDS011;33947;46.804;134.252;2023-04-02T02:22:34;13.32;;;7.35;;
46845;SDS011;33947;46.804;134.252;2023-04-02T02:25:39;18.63;;;7.88;;
46845;SDS011;33947;46.804;134.252;2023-04-02T02:28:45;15.90;;;7.13;;
46845;SDS011;33947;46.804;134.252;2023-04-02T02:31:56;16.70;;;8.05;;
46845;SDS011;33947;46.804;134.252;2023-04-02T02:38:28;20.98;;;7.50;;
46845;SDS011;33947;46.804;134.252;2023-04-02T02:45:00;21.17;;;7.95;;
46845;SDS011;33947;46.804;134.252;2023-04-02T02:48:11;20.33;;;8.38;;
46845;SDS011;33947;46.804;134.252;2023-04-02T02:51:28;42.40;;;10.00;;
46845;SDS011;33947;46.804;134.252;2023-04-02T02:54:55;18.73;;;8.13;;
46845;SDS011;33947;46.804;134.252;2023-04-02T02:58:15;20.00;;;8.43;;
46845;SDS011;33947;46.804;134.252;2023-04-02T03:01:40;18.25;;;7.78;;
46845;SDS011;33947;46.804;134.252;2023-04-02T03:04:47;16.65;;;8.73;;
46845;SDS011;33947;46.804;134.252;2023-04-02T03:07:58;17.20;;;7.55;;
46845;SDS011;33947;46.804;134.252;2023-04-02T03:11:10;32.00;;;11.85;;
46845;SDS011;33947;46.804;134.252;2023-04-02T03:20:19;17.50;;;8.57;;
46845;SDS011;33947;46.804;134.252;2023-04-02T03:23:29;22.77;;;8.60;;
46845;SDS011;33947;46.804;134.252;2023-04-02T03:26:40;13.88;;;8.52;;
46845;SDS011;33947;46.804;134.252;2023-04-02T03:29:57;16.60;;;8.52;;
46845;SDS011;33947;46.804;134.252;2023-04-02T03:33:27;22.40;;;8.93;;
46845;SDS011;33947;46.804;134.252;2023-04-02T03:39:54;18.23;;;8.13;;
46845;SDS011;33947;46.804;134.252;2023-04-02T03:43:02;15.10;;;8.30;;
46845;SDS011;33947;46.804;134.252;2023-04-02T03:46:41;16.80;;;8.88;;
46845;SDS011;33947;46.804;134.252;2023-04-02T03:49:51;18.35;;;9.15;;
46845;SDS011;33947;46.804;134.252;2023-04-02T03:53:01;13.50;;;8.50;;
46845;SDS011;33947;46.804;134.252;2023-04-02T03:56:07;36.80;;;9.68;;
46845;SDS011;33947;46.804;134.252;2023-04-02T04:02:43;15.15;;;8.10;;
46845;SDS011;33947;46.804;134.252;2023-04-02T04:06:11;14.13;;;6.73;;
46845;SDS011;33947;46.804;134.252;2023-04-02T04:09:36;14.43;;;7.93;;
46845;SDS011;33947;46.804;134.252;2023-04-02T04:12:47;15.57;;;8.18;;
46845;SDS011;33947;46.804;134.252;2023-04-02T04:16:04;14.38;;;7.57;;
46845;SDS011;33947;46.804;134.252;2023-04-02T04:22:41;15.65;;;8.52;;
46845;SDS011;33947;46.804;134.252;2023-04-02T04:25:59;12.05;;;7.72;;
46845;SDS011;33947;46.804;134.252;2023-04-02T04:32:56;17.02;;;7.57;;
46845;SDS011;33947;46.804;134.252;2023-04-02T04:40:17;14.48;;;8.75;;
46845;SDS011;33947;46.804;134.252;2023-04-02T04:50:31;16.30;;;7.70;;
46845;SDS011;33947;46.804;134.252;2023-04-02T04:53:43;18.75;;;7.82;;
46845;SDS011;33947;46.804;134.252;2023-04-02T04:56:56;12.80;;;7.53;;
46845;SDS011;33947;46.804;134.252;2023-04-02T05:00:12;28.00;;;9.15;;
46845;SDS011;33947;46.804;134.252;2023-04-02T05:03:31;22.05;;;9.20;;
46845;SDS011;33947;46.804;134.252;2023-04-02T05:17:09;45.90;;;11.32;;
46845;SDS011;33947;46.804;134.252;2023-04-02T05:30:57;16.02;;;8.80;;
46845;SDS011;33947;46.804;134.252;2023-04-02T05:34:12;19.67;;;9.50;;
46845;SDS011;33947;46.804;134.252;2023-04-02T05:37:25;18.38;;;8.73;;
46845;SDS011;33947;46.804;134.252;2023-04-02T05:40:37;23.33;;;9.43;;
46845;SDS011;33947;46.804;134.252;2023-04-02T05:43:50;13.82;;;8.18;;
46845;SDS011;33947;46.804;134.252;2023-04-02T05:47:05;20.60;;;8.88;;
46845;SDS011;33947;46.804;134.252;2023-04-02T05:50:35;12.15;;;8.20;;
46845;SDS011;33947;46.804;134.252;2023-04-02T05:53:50;15.57;;;9.13;;
46845;SDS011;33947;46.804;134.252;2023-04-02T05:57:11;22.15;;;8.77;;
46845;SDS011;33947;46.804;134.252;2023-04-02T06:07:12;18.85;;;9.10;;
46845;SDS011;33947;46.804;134.252;2023-04-02T06:10:28;18.70;;;9.45;;
46845;SDS011;33947;46.804;134.252;2023-04-02T06:13:45;19.70;;;10.02;;
46845;SDS011;33947;46.804;134.252;2023-04-02T06:16:50;24.05;;;9.60;;
46845;SDS011;33947;46.804;134.252;2023-04-02T06:20:00;18.63;;;9.25;;
46845;SDS011;33947;46.804;134.252;2023-04-02T06:23:15;26.38;;;10.00;;
46845;SDS011;33947;46.804;134.252;2023-04-02T06:26:31;24.17;;;9.70;;
46845;SDS011;33947;46.804;134.252;2023-04-02T06:29:41;19.30;;;9.20;;
46845;SDS011;33947;46.804;134.252;2023-04-02T06:32:52;24.73;;;13.07;;
46845;SDS011;33947;46.804;134.252;2023-04-02T06:35:57;20.42;;;11.95;;
46845;SDS011;33947;46.804;134.252;2023-04-02T06:39:10;17.42;;;11.38;;
46845;SDS011;33947;46.804;134.252;2023-04-02T06:42:30;32.15;;;13.45;;
46845;SDS011;33947;46.804;134.252;2023-04-02T06:45:48;22.98;;;11.73;;
46845;SDS011;33947;46.804;134.252;2023-04-02T06:52:49;18.02;;;9.80;;
46845;SDS011;33947;46.804;134.252;2023-04-02T06:59:06;18.23;;;12.20;;
46845;SDS011;33947;46.804;134.252;2023-04-02T07:05:37;17.05;;;10.10;;
46845;SDS011;33947;46.804;134.252;2023-04-02T07:08:45;13.65;;;9.35;;
46845;SDS011;33947;46.804;134.252;2023-04-02T07:11:51;15.52;;;9.40;;
46845;SDS011;33947;46.804;134.252;2023-04-02T07:14:56;15.40;;;9.88;;
46845;SDS011;33947;46.804;134.252;2023-04-02T07:21:06;13.05;;;8.40;;
46845;SDS011;33947;46.804;134.252;2023-04-02T07:24:12;18.02;;;8.98;;
46845;SDS011;33947;46.804;134.252;2023-04-02T07:27:17;12.07;;;7.90;;
46845;SDS011;33947;46.804;134.252;2023-04-02T07:30:21;14.70;;;8.50;;
46845;SDS011;33947;46.804;134.252;2023-04-02T07:33:29;10.88;;;7.93;;
46845;SDS011;33947;46.804;134.252;2023-04-02T07:36:34;11.73;;;7.53;;
46845;SDS011;33947;46.804;134.252;2023-04-02T07:39:39;14.35;;;8.80;;
46845;SDS011;33947;46.804;134.252;2023-04-02T07:42:44;12.82;;;8.75;;
46845;SDS011;33947;46.804;134.252;2023-04-02T07:45:49;12.50;;;8.23;;
46845;SDS011;33947;46.804;134.252;2023-04-02T07:48:54;13.15;;;8.73;;
46845;SDS011;33947;46.804;134.252;2023-04-02T07:51:58;14.65;;;8.10;;
46845;SDS011;33947;46.804;134.252;2023-04-02T07:55:03;20.63;;;11.25;;
46845;SDS011;33947;46.804;134.252;2023-04-02T07:58:10;15.05;;;9.52;;
46845;SDS011;33947;46.804;134.252;2023-04-02T08:01:19;14.10;;;9.30;;
46845;SDS011;33947;46.804;134.252;2023-04-02T08:04:26;14.52;;;9.23;;
46845;SDS011;33947;46.804;134.252;2023-04-02T08:07:31;13.20;;;8.88;;
46845;SDS011;33947;46.804;134.252;2023-04-02T08:10:35;15.63;;;9.38;;
46845;SDS011;33947;46.804;134.252;2023-04-02T08:13:39;16.60;;;10.95;;
46845;SDS011;33947;46.804;134.252;2023-04-02T08:19:59;16.58;;;9.23;;
46845;SDS011;33947;46.804;134.252;2023-04-02T08:23:11;17.52;;;8.90;;
46845;SDS011;33947;46.804;134.252;2023-04-02T08:26:19;12.95;;;8.80;;
46845;SDS011;33947;46.804;134.252;2023-04-02T08:29:24;29.15;;;12.15;;
46845;SDS011;33947;46.804;134.252;2023-04-02T08:32:31;24.88;;;15.00;;
46845;SDS011;33947;46.804;134.252;2023-04-02T08:35:39;30.95;;;15.40;;
46845;SDS011;33947;46.804;134.252;2023-04-02T08:38:43;16.40;;;9.77;;
46845;SDS011;33947;46.804;134.252;2023-04-02T08:41:52;16.77;;;10.25;;
46845;SDS011;33947;46.804;134.252;2023-04-02T08:48:28;15.63;;;9.68;;
46845;SDS011;33947;46.804;134.252;2023-04-02T08:51:35;15.02;;;9.45;;
46845;SDS011;33947;46.804;134.252;2023-04-02T08:54:40;19.52;;;10.48;;
46845;SDS011;33947;46.804;134.252;2023-04-02T09:00:55;15.00;;;8.98;;
46845;SDS011;33947;46.804;134.252;2023-04-02T09:04:04;22.90;;;9.55;;
46845;SDS011;33947;46.804;134.252;2023-04-02T09:07:18;17.95;;;11.52;;
46845;SDS011;33947;46.804;134.252;2023-04-02T09:10:24;18.60;;;11.45;;
46845;SDS011;33947;46.804;134.252;2023-04-02T09:13:58;21.90;;;11.68;;
46845;SDS011;33947;46.804;134.252;2023-04-02T09:17:19;26.75;;;13.32;;
46845;SDS011;33947;46.804;134.252;2023-04-02T09:20:26;46.92;;;18.58;;
46845;SDS011;33947;46.804;134.252;2023-04-02T09:23:31;72.75;;;22.00;;
46845;SDS011;33947;46.804;134.252;2023-04-02T09:26:36;59.25;;;20.50;;
46845;SDS011;33947;46.804;134.252;2023-04-02T09:29:44;51.33;;;19.58;;
46845;SDS011;33947;46.804;134.252;2023-04-02T09:32:52;59.67;;;21.67;;
46845;SDS011;33947;46.804;134.252;2023-04-02T09:35:59;65.05;;;23.08;;
46845;SDS011;33947;46.804;134.252;2023-04-02T09:39:05;90.75;;;23.92;;
46845;SDS011;33947;46.804;134.252;2023-04-02T09:42:30;75.60;;;36.40;;
46845;SDS011;33947;46.804;134.252;2023-04-02T09:45:40;167.68;;;59.08;;
46845;SDS011;33947;46.804;134.252;2023-04-02T09:48:53;230.73;;;104.93;;
46845;SDS011;33947;46.804;134.252;2023-04-02T09:58:18;177.75;;;76.68;;
46845;SDS011;33947;46.804;134.252;2023-04-02T10:01:25;148.30;;;62.00;;
46845;SDS011;33947;46.804;134.252;2023-04-02T10:04:38;117.32;;;42.95;;
46845;SDS011;33947;46.804;134.252;2023-04-02T10:07:51;148.15;;;60.63;;
46845;SDS011;33947;46.804;134.252;2023-04-02T10:10:58;214.65;;;93.20;;
46845;SDS011;33947;46.804;134.252;2023-04-02T10:14:15;151.52;;;64.97;;
46845;SDS011;33947;46.804;134.252;2023-04-02T10:17:24;213.70;;;86.43;;
46845;SDS011;33947;46.804;134.252;2023-04-02T10:20:34;267.25;;;102.07;;
46845;SDS011;33947;46.804;134.252;2023-04-02T10:23:54;189.23;;;77.78;;
46845;SDS011;33947;46.804;134.252;2023-04-02T10:30:55;160.63;;;71.78;;
46845;SDS011;33947;46.804;134.252;2023-04-02T10:34:45;102.97;;;48.63;;
46845;SDS011;33947;46.804;134.252;2023-04-02T10:42:04;71.22;;;36.72;;
46845;SDS011;33947;46.804;134.252;2023-04-02T10:52:03;186.43;;;83.80;;
46845;SDS011;33947;46.804;134.252;2023-04-02T10:55:23;139.77;;;62.53;;
46845;SDS011;33947;46.804;134.252;2023-04-02T10:58:36;309.40;;;128.02;;
46845;SDS011;33947;46.804;134.252;2023-04-02T11:01:49;288.23;;;121.50;;
46845;SDS011;33947;46.804;134.252;2023-04-02T11:04:56;338.88;;;166.27;;
46845;SDS011;33947;46.804;134.252;2023-04-02T11:11:45;198.82;;;86.60;;
46845;SDS011;33947;46.804;134.252;2023-04-02T11:14:54;237.20;;;97.10;;
46845;SDS011;33947;46.804;134.252;2023-04-02T11:17:59;249.48;;;107.78;;
46845;SDS011;33947;46.804;134.252;2023-04-02T11:21:06;235.45;;;98.65;;
46845;SDS011;33947;46.804;134.252;2023-04-02T11:24:24;217.13;;;93.53;;
46845;SDS011;33947;46.804;134.252;2023-04-02T11:27:31;203.43;;;90.05;;
46845;SDS011;33947;46.804;134.252;2023-04-02T11:30:37;147.68;;;60.22;;
46845;SDS011;33947;46.804;134.252;2023-04-02T11:33:41;156.20;;;62.92;;
46845;SDS011;33947;46.804;134.252;2023-04-02T11:40:00;109.97;;;44.33;;
46845;SDS011;33947;46.804;134.252;2023-04-02T11:46:38;138.93;;;52.75;;
46845;SDS011;33947;46.804;134.252;2023-04-02T11:49:57;121.45;;;43.78;;
46845;SDS011;33947;46.804;134.252;2023-04-02T11:53:14;113.32;;;46.13;;
46845;SDS011;33947;46.804;134.252;2023-04-02T12:03:47;334.83;;;114.97;;
46845;SDS011;33947;46.804;134.252;2023-04-02T12:07:07;364.88;;;118.55;;
46845;SDS011;33947;46.804;134.252;2023-04-02T12:10:52;321.33;;;106.70;;
46845;SDS011;33947;46.804;134.252;2023-04-02T12:14:06;321.17;;;111.10;;
46845;SDS011;33947;46.804;134.252;2023-04-02T12:17:36;185.98;;;65.93;;
46845;SDS011;33947;46.804;134.252;2023-04-02T12:20:47;264.38;;;86.70;;
46845;SDS011;33947;46.804;134.252;2023-04-02T12:23:57;357.05;;;112.10;;
46845;SDS011;33947;46.804;134.252;2023-04-02T12:27:07;621.75;;;202.98;;
46845;SDS011;33947;46.804;134.252;2023-04-02T12:30:22;545.88;;;163.80;;
46845;SDS011;33947;46.804;134.252;2023-04-02T12:33:28;391.92;;;117.72;;
46845;SDS011;33947;46.804;134.252;2023-04-02T12:36:39;258.10;;;99.00;;
46845;SDS011;33947;46.804;134.252;2023-04-02T12:40:15;284.17;;;101.00;;
46845;SDS011;33947;46.804;134.252;2023-04-02T12:43:31;201.82;;;77.57;;
46845;SDS011;33947;46.804;134.252;2023-04-02T12:49:47;134.25;;;48.22;;
46845;SDS011;33947;46.804;134.252;2023-04-02T12:52:53;126.95;;;52.90;;
46845;SDS011;33947;46.804;134.252;2023-04-02T12:56:01;125.35;;;48.22;;
46845;SDS011;33947;46.804;134.252;2023-04-02T12:59:28;89.20;;;33.92;;
46845;SDS011;33947;46.804;134.252;2023-04-02T13:02:43;311.20;;;104.30;;
46845;SDS011;33947;46.804;134.252;2023-04-02T13:05:51;253.10;;;84.28;;
46845;SDS011;33947;46.804;134.252;2023-04-02T13:09:03;127.20;;;49.75;;
46845;SDS011;33947;46.804;134.252;2023-04-02T13:12:39;128.45;;;47.38;;
46845;SDS011;33947;46.804;134.252;2023-04-02T13:15:43;148.15;;;51.85;;
46845;SDS011;33947;46.804;134.252;2023-04-02T13:19:07;140.20;;;56.83;;
46845;SDS011;33947;46.804;134.252;2023-04-02T13:22:28;153.80;;;62.28;;
46845;SDS011;33947;46.804;134.252;2023-04-02T13:25:34;138.05;;;56.20;;
46845;SDS011;33947;46.804;134.252;2023-04-02T13:29:01;153.18;;;58.28;;
46845;SDS011;33947;46.804;134.252;2023-04-02T13:32:10;165.52;;;58.90;;
46845;SDS011;33947;46.804;134.252;2023-04-02T13:35:18;153.02;;;57.92;;
46845;SDS011;33947;46.804;134.252;2023-04-02T13:38:25;136.18;;;52.42;;
46845;SDS011;33947;46.804;134.252;2023-04-02T13:41:32;162.30;;;63.55;;
46845;SDS011;33947;46.804;134.252;2023-04-02T13:44:41;173.20;;;69.72;;
46845;SDS011;33947;46.804;134.252;2023-04-02T13:47:49;222.23;;;77.93;;
46845;SDS011;33947;46.804;134.252;2023-04-02T13:50:53;158.65;;;60.28;;
46845;SDS011;33947;46.804;134.252;2023-04-02T13:53:58;149.83;;;54.13;;
46845;SDS011;33947;46.804;134.252;2023-04-02T13:57:04;109.90;;;44.38;;
46845;SDS011;33947;46.804;134.252;2023-04-02T14:00:11;95.28;;;37.90;;
46845;SDS011;33947;46.804;134.252;2023-04-02T14:03:19;79.68;;;32.58;;
46845;SDS011;33947;46.804;134.252;2023-04-02T14:26:40;17.17;;;12.25;;
46845;SDS011;33947;46.804;134.252;2023-04-02T14:30:03;21.65;;;12.57;;
46845;SDS011;33947;46.804;134.252;2023-04-02T14:33:27;23.05;;;12.55;;
46845;SDS011;33947;46.804;134.252;2023-04-02T14:36:57;18.42;;;12.32;;
46845;SDS011;33947;46.804;134.252;2023-04-02T14:43:48;21.13;;;12.55;;
46845;SDS011;33947;46.804;134.252;2023-04-02T14:47:01;20.25;;;12.27;;
46845;SDS011;33947;46.804;134.252;2023-04-02T14:50:28;18.65;;;12.32;;
46845;SDS011;33947;46.804;134.252;2023-04-02T14:53:50;24.67;;;14.18;;
46845;SDS011;33947;46.804;134.252;2023-04-02T15:00:31;20.38;;;12.52;;
46845;SDS011;33947;46.804;134.252;2023-04-02T15:04:03;24.25;;;13.43;;
46845;SDS011;33947;46.804;134.252;2023-04-02T15:07:21;16.15;;;11.85;;
46845;SDS011;33947;46.804;134.252;2023-04-02T15:10:35;25.10;;;12.57;;
46845;SDS011;33947;46.804;134.252;2023-04-02T15:13:55;21.35;;;12.13;;
46845;SDS011;33947;46.804;134.252;2023-04-02T15:17:09;21.52;;;13.23;;
46845;SDS011;33947;46.804;134.252;2023-04-02T15:20:15;21.80;;;12.85;;
46845;SDS011;33947;46.804;134.252;2023-04-02T15:26:41;22.15;;;12.90;;
46845;SDS011;33947;46.804;134.252;2023-04-02T15:30:08;18.92;;;13.10;;
46845;SDS011;33947;46.804;134.252;2023-04-02T15:33:30;20.13;;;12.55;;
46845;SDS011;33947;46.804;134.252;2023-04-02T15:50:37;25.80;;;12.52;;
46845;SDS011;33947;46.804;134.252;2023-04-02T15:57:05;20.77;;;12.88;;
46845;SDS011;33947;46.804;134.252;2023-04-02T16:00:30;27.45;;;13.27;;
46845;SDS011;33947;46.804;134.252;2023-04-02T16:07:29;20.58;;;13.75;;
46845;SDS011;33947;46.804;134.252;2023-04-02T16:10:53;20.70;;;13.32;;
46845;SDS011;33947;46.804;134.252;2023-04-02T16:13:59;21.63;;;13.40;;
46845;SDS011;33947;46.804;134.252;2023-04-02T16:17:17;25.65;;;13.60;;
46845;SDS011;33947;46.804;134.252;2023-04-02T16:20:29;28.75;;;14.40;;
46845;SDS011;33947;46.804;134.252;2023-04-02T16:23:38;24.27;;;14.50;;
46845;SDS011;33947;46.804;134.252;2023-04-02T16:40:50;21.33;;;13.07;;
46845;SDS011;33947;46.804;134.252;2023-04-02T17:07:09;23.75;;;14.93;;
46845;SDS011;33947;46.804;134.252;2023-04-02T17:10:29;24.85;;;15.07;;
46845;SDS011;33947;46.804;134.252;2023-04-02T17:13:56;25.23;;;15.68;;
46845;SDS011;33947;46.804;134.252;2023-04-02T17:17:10;21.58;;;14.35;;
46845;SDS011;33947;46.804;134.252;2023-04-02T17:20:22;26.27;;;15.32;;
46845;SDS011;33947;46.804;134.252;2023-04-02T17:23:28;24.98;;;14.80;;
46845;SDS011;33947;46.804;134.252;2023-04-02T17:26:49;21.20;;;13.93;;
46845;SDS011;33947;46.804;134.252;2023-04-02T17:29:59;25.90;;;15.02;;
46845;SDS011;33947;46.804;134.252;2023-04-02T17:33:17;21.77;;;15.10;;
46845;SDS011;33947;46.804;134.252;2023-04-02T17:36:39;23.30;;;14.02;;
46845;SDS011;33947;46.804;134.252;2023-04-02T17:53:52;25.45;;;15.57;;
46845;SDS011;33947;46.804;134.252;2023-04-02T18:03:49;23.92;;;15.80;;
46845;SDS011;33947;46.804;134.252;2023-04-02T18:14:09;20.70;;;13.40;;
46845;SDS011;33947;46.804;134.252;2023-04-02T18:17:46;23.77;;;13.98;;
46845;SDS011;33947;46.804;134.252;2023-04-02T18:31:00;20.15;;;13.90;;
46845;SDS011;33947;46.804;134.252;2023-04-02T18:38:14;19.25;;;12.60;;
46845;SDS011;33947;46.804;134.252;2023-04-02T18:51:35;20.13;;;13.65;;
46845;SDS011;33947;46.804;134.252;2023-04-02T18:54:44;18.85;;;12.65;;
46845;SDS011;33947;46.804;134.252;2023-04-02T18:58:05;20.75;;;13.07;;
46845;SDS011;33947;46.804;134.252;2023-04-02T19:01:29;19.65;;;13.00;;
46845;SDS011;33947;46.804;134.252;2023-04-02T19:04:39;18.08;;;12.27;;
46845;SDS011;33947;46.804;134.252;2023-04-02T19:07:53;19.92;;;11.52;;
46845;SDS011;33947;46.804;134.252;2023-04-02T19:11:38;15.90;;;11.38;;
46845;SDS011;33947;46.804;134.252;2023-04-02T19:14:35;21.02;;;11.43;;
46845;SDS011;33947;46.804;134.252;2023-04-02T19:17:40;15.82;;;11.75;;
46845;SDS011;33947;46.804;134.252;2023-04-02T19:20:57;21.33;;;12.27;;
46845;SDS011;33947;46.804;134.252;2023-04-02T19:24:21;21.48;;;11.70;;
46845;SDS011;33947;46.804;134.252;2023-04-02T19:42:48;21.95;;;12.60;;
46845;SDS011;33947;46.804;134.252;2023-04-02T19:45:55;16.48;;;12.30;;
46845;SDS011;33947;46.804;134.252;2023-04-02T19:52:28;20.88;;;10.95;;
46845;SDS011;33947;46.804;134.252;2023-04-02T19:55:33;19.10;;;11.18;;
46845;SDS011;33947;46.804;134.252;2023-04-02T19:58:38;49.80;;;26.25;;
46845;SDS011;33947;46.804;134.252;2023-04-02T20:01:43;41.67;;;26.52;;
46845;SDS011;33947;46.804;134.252;2023-04-02T20:04:47;26.27;;;16.83;;
46845;SDS011;33947;46.804;134.252;2023-04-02T20:07:52;20.30;;;12.55;;
46845;SDS011;33947;46.804;134.252;2023-04-02T20:10:56;13.13;;;9.80;;
46845;SDS011;33947;46.804;134.252;2023-04-02T20:14:02;18.45;;;10.35;;
46845;SDS011;33947;46.804;134.252;2023-04-02T20:17:07;22.95;;;11.15;;
46845;SDS011;33947;46.804;134.252;2023-04-02T20:20:12;32.95;;;18.25;;
46845;SDS011;33947;46.804;134.252;2023-04-02T20:23:18;69.78;;;29.38;;
46845;SDS011;33947;46.804;134.252;2023-04-02T20:26:23;19.10;;;11.73;;
46845;SDS011;33947;46.804;134.252;2023-04-02T20:29:32;19.50;;;10.77;;
46845;SDS011;33947;46.804;134.252;2023-04-02T20:32:36;15.90;;;11.10;;
46845;SDS011;33947;46.804;134.252;2023-04-02T20:35:41;20.35;;;11.40;;
46845;SDS011;33947;46.804;134.252;2023-04-02T20:38:47;16.70;;;10.43;;
46845;SDS011;33947;46.804;134.252;2023-04-02T20:41:57;27.70;;;14.75;;
46845;SDS011;33947;46.804;134.252;2023-04-02T20:45:07;21.85;;;10.90;;
46845;SDS011;33947;46.804;134.252;2023-04-02T20:48:15;19.90;;;11.43;;
46845;SDS011;33947;46.804;134.252;2023-04-02T20:51:22;21.05;;;11.50;;
46845;SDS011;33947;46.804;134.252;2023-04-02T20:54:29;24.42;;;12.90;;
46845;SDS011;33947;46.804;134.252;2023-04-02T20:57:39;25.10;;;12.27;;
46845;SDS011;33947;46.804;134.252;2023-04-02T21:00:44;17.98;;;10.88;;
46845;SDS011;33947;46.804;134.252;2023-04-02T21:04:00;22.13;;;10.82;;
46845;SDS011;33947;46.804;134.252;2023-04-02T21:07:06;21.55;;;10.82;;
46845;SDS011;33947;46.804;134.252;2023-04-02T21:10:10;15.48;;;9.68;;
46845;SDS011;33947;46.804;134.252;2023-04-02T21:13:15;27.33;;;11.25;;
46845;SDS011;33947;46.804;134.252;2023-04-02T21:16:21;33.47;;;10.98;;
46845;SDS011;33947;46.804;134.252;2023-04-02T21:19:27;16.38;;;10.15;;
46845;SDS011;33947;46.804;134.252;2023-04-02T21:22:32;20.90;;;10.60;;
46845;SDS011;33947;46.804;134.252;2023-04-02T21:25:39;20.08;;;10.13;;
46845;SDS011;33947;46.804;134.252;2023-04-02T21:28:44;19.67;;;11.35;;
46845;SDS011;33947;46.804;134.252;2023-04-02T21:31:48;116.95;;;16.52;;
46845;SDS011;33947;46.804;134.252;2023-04-02T21:34:53;22.30;;;10.48;;
46845;SDS011;33947;46.804;134.252;2023-04-02T21:37:58;18.55;;;11.10;;
46845;SDS011;33947;46.804;134.252;2023-04-02T21:41:17;17.77;;;11.68;;
46845;SDS011;33947;46.804;134.252;2023-04-02T21:44:24;21.25;;;11.23;;
46845;SDS011;33947;46.804;134.252;2023-04-02T21:47:29;26.52;;;11.35;;
46845;SDS011;33947;46.804;134.252;2023-04-02T21:50:33;21.92;;;11.10;;
46845;SDS011;33947;46.804;134.252;2023-04-02T21:53:38;18.15;;;10.75;;
46845;SDS011;33947;46.804;134.252;2023-04-02T21:59:51;23.30;;;10.95;;
46845;SDS011;33947;46.804;134.252;2023-04-02T22:02:59;23.15;;;11.00;;
46845;SDS011;33947;46.804;134.252;2023-04-02T22:06:14;51.70;;;13.25;;
46845;SDS011;33947;46.804;134.252;2023-04-02T22:09:24;28.00;;;12.10;;
46845;SDS011;33947;46.804;134.252;2023-04-02T22:12:29;29.52;;;12.38;;
46845;SDS011;33947;46.804;134.252;2023-04-02T22:15:33;24.65;;;11.65;;
46845;SDS011;33947;46.804;134.252;2023-04-02T22:18:41;19.55;;;11.98;;
46845;SDS011;33947;46.804;134.252;2023-04-02T22:21:50;38.45;;;12.50;;
46845;SDS011;33947;46.804;134.252;2023-04-02T22:24:55;19.77;;;11.70;;
46845;SDS011;33947;46.804;134.252;2023-04-02T22:28:00;38.13;;;12.82;;
46845;SDS011;33947;46.804;134.252;2023-04-02T22:31:16;38.95;;;13.65;;
46845;SDS011;33947;46.804;134.252;2023-04-02T22:34:23;21.35;;;10.73;;
46845;SDS011;33947;46.804;134.252;2023-04-02T22:37:27;20.67;;;10.50;;
46845;SDS011;33947;46.804;134.252;2023-04-02T22:40:36;18.42;;;10.77;;
46845;SDS011;33947;46.804;134.252;2023-04-02T22:43:46;21.40;;;10.52;;
46845;SDS011;33947;46.804;134.252;2023-04-02T22:49:56;21.48;;;10.68;;
46845;SDS011;33947;46.804;134.252;2023-04-02T22:53:07;29.33;;;11.77;;
46845;SDS011;33947;46.804;134.252;2023-04-02T22:56:15;22.60;;;10.98;;
46845;SDS011;33947;46.804;134.252;2023-04-02T22:59:22;25.02;;;11.80;;
46845;SDS011;33947;46.804;134.252;2023-04-02T23:02:30;34.13;;;12.40;;
46845;SDS011;33947;46.804;134.252;2023-04-02T23:05:34;23.77;;;12.02;;
46845;SDS011;33947;46.804;134.252;2023-04-02T23:08:39;23.35;;;11.68;;
46845;SDS011;33947;46.804;134.252;2023-04-02T23:11:45;22.85;;;12.02;;
46845;SDS011;33947;46.804;134.252;2023-04-02T23:14:50;20.83;;;11.60;;
46845;SDS011;33947;46.804;134.252;2023-04-02T23:17:54;20.63;;;10.88;;
46845;SDS011;33947;46.804;134.252;2023-04-02T23:20:59;20.25;;;11.77;;
46845;SDS011;33947;46.804;134.252;2023-04-02T23:24:03;25.42;;;12.23;;
46845;SDS011;33947;46.804;134.252;2023-04-02T23:27:08;41.47;;;12.07;;
46845;SDS011;33947;46.804;134.252;2023-04-02T23:30:12;24.35;;;12.23;;
46845;SDS011;33947;46.804;134.252;2023-04-02T23:33:16;24.73;;;11.10;;
46845;SDS011;33947;46.804;134.252;2023-04-02T23:36:24;27.10;;;12.40;;
46845;SDS011;33947;46.804;134.252;2023-04-02T23:39:32;29.80;;;12.63;;
46845;SDS011;33947;46.804;134.252;2023-04-02T23:42:38;23.67;;;12.23;;